Time;durP1;ratioP1;P1;durP2;ratioP2;P2;SDS_P1;SDS_P2;PMS_P1;PMS_P2;Temp;Humidity;BMP_temperature;BMP_pressure;BME280_temperature;BME280_humidity;BME280_pressure;Samples;Min_cycle;Max_cycle;Signal;HPM_P1;HPM_P2
2022/08/20 00:00:15;;;;;;;20.97;11.27;;;18.40;99.90;;;;;;5092820;28;20443;-74
2022/08/20 00:02:57;;;;;;;23.55;11.90;;;18.40;99.90;;;;;;5060107;28;20297;-73
2022/08/20 00:05:27;;;;;;;22.23;11.55;;;18.40;99.90;;;;;;5076060;28;20040;-73
2022/08/20 00:07:53;;;;;;;24.17;10.85;;;18.40;99.90;;;;;;5077124;28;20055;-73
2022/08/20 00:10:19;;;;;;;21.97;10.97;;;18.40;99.90;;;;;;5106829;28;20073;-74
2022/08/20 00:12:47;;;;;;;22.83;11.05;;;18.40;99.90;;;;;;5093490;28;20312;-73
2022/08/20 00:15:20;;;;;;;24.55;11.40;;;18.40;99.90;;;;;;5073966;28;20484;-75
2022/08/20 00:17:50;;;;;;;22.30;11.45;;;18.40;99.90;;;;;;5091825;28;20398;-72
2022/08/20 00:20:18;;;;;;;21.88;10.98;;;18.40;99.90;;;;;;5091263;28;20044;-73
2022/08/20 00:22:44;;;;;;;24.15;10.65;;;18.40;99.90;;;;;;5056992;28;20048;-73
2022/08/20 00:25:11;;;;;;;26.20;10.50;;;18.30;99.90;;;;;;5077399;28;20584;-75
2022/08/20 00:27:37;;;;;;;22.63;10.65;;;18.30;99.90;;;;;;5074039;28;20768;-74
2022/08/20 00:30:06;;;;;;;19.53;10.90;;;18.30;99.90;;;;;;5092269;28;20048;-74
2022/08/20 00:32:49;;;;;;;19.58;10.48;;;18.30;99.90;;;;;;5096680;28;20130;-74
2022/08/20 00:35:18;;;;;;;20.55;11.02;;;18.30;99.90;;;;;;5103501;28;20051;-77
2022/08/20 00:37:43;;;;;;;19.73;11.13;;;18.30;99.90;;;;;;5096334;28;20381;-75
2022/08/20 00:40:13;;;;;;;21.87;11.40;;;18.30;99.90;;;;;;5112577;28;20071;-73
2022/08/20 00:42:47;;;;;;;18.50;10.45;;;18.20;99.90;;;;;;5102946;28;20040;-72
2022/08/20 00:45:16;;;;;;;21.70;10.20;;;18.20;99.90;;;;;;5087482;28;20044;-73
2022/08/20 00:47:42;;;;;;;21.13;10.63;;;18.20;99.90;;;;;;5113985;28;20054;-72
2022/08/20 00:50:15;;;;;;;19.38;9.80;;;18.10;99.90;;;;;;5097122;28;20496;-70
2022/08/20 00:52:43;;;;;;;20.83;9.82;;;18.10;99.90;;;;;;5091515;28;20547;-71
2022/08/20 00:55:11;;;;;;;18.55;9.20;;;18.10;99.90;;;;;;5084976;28;20040;-73
2022/08/20 00:57:42;;;;;;;21.92;9.70;;;18.10;99.90;;;;;;5091847;28;20491;-72
2022/08/20 01:00:19;;;;;;;25.17;10.70;;;18.00;99.90;;;;;;5109247;28;20123;-73
2022/08/20 01:02:46;;;;;;;22.30;9.48;;;18.00;99.90;;;;;;5089111;28;20048;-73
2022/08/20 01:05:12;;;;;;;;;;;17.90;99.90;;;;;;5073465;28;20067;-73
2022/08/20 01:07:38;;;;;;;23.77;9.07;;;18.00;99.90;;;;;;5090226;28;19927;-72
2022/08/20 01:10:16;;;;;;;18.70;9.90;;;17.90;99.90;;;;;;5090912;28;20051;-73
2022/08/20 01:12:45;;;;;;;24.15;9.70;;;17.90;99.90;;;;;;5088616;28;20511;-72
2022/08/20 01:15:16;;;;;;;21.20;9.98;;;17.90;99.90;;;;;;5090658;28;20079;-72
2022/08/20 01:17:48;;;;;;;22.95;10.38;;;17.90;99.90;;;;;;5058425;28;20059;-72
2022/08/20 01:20:27;;;;;;;20.60;10.63;;;17.80;99.90;;;;;;5094453;28;20044;-73
2022/08/20 01:25:49;;;;;;;22.95;10.45;;;17.90;99.90;;;;;;5080246;28;20085;-72
2022/08/20 01:28:19;;;;;;;22.65;10.52;;;17.90;99.90;;;;;;5075157;28;20047;-73
2022/08/20 01:30:45;;;;;;;21.42;10.68;;;17.90;99.90;;;;;;5094413;28;20036;-71
2022/08/20 01:33:11;;;;;;;21.43;10.07;;;17.90;99.90;;;;;;5075672;28;20108;-72
2022/08/20 01:35:39;;;;;;;19.77;9.67;;;17.90;99.90;;;;;;5081793;28;20067;-72
2022/08/20 01:38:06;;;;;;;19.88;10.18;;;17.90;99.90;;;;;;5076354;28;20302;-72
2022/08/20 01:40:50;;;;;;;20.38;9.75;;;17.90;99.90;;;;;;5093969;28;20060;-71
2022/08/20 01:43:16;;;;;;;20.00;9.07;;;17.90;99.90;;;;;;5074478;28;20086;-73
2022/08/20 01:45:42;;;;;;;18.93;10.00;;;17.90;99.90;;;;;;5059285;28;20044;-71
2022/08/20 01:48:08;;;;;;;19.53;9.30;;;17.90;99.90;;;;;;5093292;28;20044;-73
2022/08/20 01:50:37;;;;;;;20.73;9.40;;;17.90;99.90;;;;;;5113405;28;20039;-72
2022/08/20 01:53:15;;;;;;;21.50;9.63;;;17.90;99.90;;;;;;5095921;28;20055;-71
2022/08/20 01:55:41;;;;;;;24.25;9.70;;;17.80;99.90;;;;;;5113903;28;20115;-72
2022/08/20 01:58:07;;;;;;;20.00;9.87;;;17.90;99.90;;;;;;5112736;28;20494;-72
2022/08/20 02:00:34;;;;;;;24.83;10.30;;;17.90;99.90;;;;;;5093503;28;20048;-73
2022/08/20 02:03:02;;;;;;;27.38;11.27;;;17.90;99.90;;;;;;5093018;28;20044;-73
2022/08/20 02:05:28;;;;;;;23.52;11.18;;;17.80;99.90;;;;;;5075225;28;20044;-72
2022/08/20 02:07:54;;;;;;;;;;;17.90;99.90;;;;;;5094186;28;20124;-72
2022/08/20 02:10:22;;;;;;;22.57;10.73;;;17.90;99.90;;;;;;5076679;28;20327;-72
2022/08/20 02:12:49;;;;;;;23.08;10.50;;;17.80;99.90;;;;;;5073610;28;20559;-71
2022/08/20 02:15:15;;;;;;;22.10;9.68;;;17.80;99.90;;;;;;5095085;28;20487;-72
2022/08/20 02:17:41;;;;;;;24.17;9.80;;;17.80;99.90;;;;;;5075441;28;20181;-74
2022/08/20 02:20:14;;;;;;;24.17;9.90;;;17.70;99.90;;;;;;5076560;28;20476;-72
2022/08/20 02:22:46;;;;;;;16.90;8.95;;;17.70;99.90;;;;;;5075348;28;20557;-71
2022/08/20 02:25:13;;;;;;;24.10;9.27;;;17.70;99.90;;;;;;5093626;28;20051;-73
2022/08/20 02:27:40;;;;;;;;;;;17.60;99.90;;;;;;5074482;28;20091;-72
2022/08/20 02:30:11;;;;;;;22.17;9.52;;;17.60;99.90;;;;;;5059528;28;19920;-72
2022/08/20 02:32:37;;;;;;;21.55;9.65;;;17.60;99.90;;;;;;5076878;28;20048;-73
2022/08/20 02:35:07;;;;;;;23.45;10.60;;;17.60;99.90;;;;;;5084812;28;20134;-73
2022/08/20 02:37:34;;;;;;;23.85;10.02;;;17.60;99.90;;;;;;5112879;28;20122;-72
2022/08/20 02:40:01;;;;;;;27.90;10.32;;;17.60;99.90;;;;;;5112739;28;20091;-72
2022/08/20 02:42:27;;;;;;;26.95;10.50;;;17.60;99.90;;;;;;5111931;28;20044;-76
2022/08/20 02:44:53;;;;;;;24.97;10.37;;;17.60;99.90;;;;;;5077978;28;20387;-72
2022/08/20 02:47:19;;;;;;;25.58;10.75;;;17.60;99.90;;;;;;5099378;28;20040;-74
2022/08/20 02:49:45;;;;;;;25.73;10.93;;;17.50;99.90;;;;;;5074506;28;20477;-72
2022/08/20 02:52:13;;;;;;;21.87;10.07;;;17.50;99.90;;;;;;5092664;28;20417;-73
2022/08/20 02:54:39;;;;;;;26.70;10.23;;;17.50;99.90;;;;;;5074235;28;20105;-73
2022/08/20 02:57:10;;;;;;;22.90;9.77;;;17.50;99.90;;;;;;5079301;28;20051;-71
2022/08/20 02:59:35;;;;;;;27.30;10.60;;;17.40;99.90;;;;;;5112691;28;20052;-72
2022/08/20 03:02:01;;;;;;;24.27;10.40;;;17.40;99.90;;;;;;5090839;28;20051;-73
2022/08/20 03:04:30;;;;;;;24.63;10.10;;;17.30;99.90;;;;;;5092713;28;20455;-72
2022/08/20 03:06:57;;;;;;;22.65;10.52;;;17.30;99.90;;;;;;5081771;28;20048;-74
2022/08/20 03:09:24;;;;;;;20.77;10.38;;;17.30;99.90;;;;;;5073770;28;20097;-73
2022/08/20 03:11:50;;;;;;;21.92;10.30;;;17.30;99.90;;;;;;5104592;28;20066;-72
2022/08/20 03:14:16;;;;;;;25.87;10.23;;;17.20;99.90;;;;;;5094453;28;20487;-71
2022/08/20 03:16:42;;;;;;;23.03;10.30;;;17.20;99.90;;;;;;5093838;28;20043;-72
2022/08/20 03:19:07;;;;;;;30.03;11.30;;;17.10;99.90;;;;;;5105619;28;20050;-73
2022/08/20 03:21:34;;;;;;;24.07;10.13;;;17.20;99.90;;;;;;5091781;28;20044;-76
2022/08/20 03:23:59;;;;;;;25.33;10.60;;;17.10;99.90;;;;;;5101749;28;20108;-72
2022/08/20 03:26:25;;;;;;;22.13;9.68;;;17.20;99.90;;;;;;5111264;28;20043;-72
2022/08/20 03:28:51;;;;;;;25.63;9.60;;;17.20;99.90;;;;;;5093822;28;20046;-72
2022/08/20 03:31:17;;;;;;;20.10;9.37;;;17.20;99.90;;;;;;5071555;28;20496;-72
2022/08/20 03:33:43;;;;;;;31.02;10.88;;;17.20;99.90;;;;;;5091573;28;20044;-71
2022/08/20 03:36:09;;;;;;;22.47;10.50;;;17.20;99.90;;;;;;5073337;28;20066;-72
2022/08/20 03:38:35;;;;;;;27.67;9.67;;;17.20;99.90;;;;;;5091840;28;20488;-75
2022/08/20 03:41:02;;;;;;;23.90;10.20;;;17.20;99.90;;;;;;5091222;28;20076;-76
2022/08/20 03:43:28;;;;;;;26.48;10.05;;;17.10;99.90;;;;;;5090287;28;20325;-73
2022/08/20 03:45:54;;;;;;;27.38;9.85;;;17.20;99.90;;;;;;5073499;28;20048;-71
2022/08/20 03:48:20;;;;;;;25.10;9.73;;;17.10;99.90;;;;;;5111045;28;20097;-73
2022/08/20 03:50:47;;;;;;;32.73;10.20;;;17.10;99.90;;;;;;5111933;28;20062;-73
2022/08/20 03:53:13;;;;;;;;;;;17.10;99.90;;;;;;5112281;28;20335;-72
2022/08/20 03:55:40;;;;;;;27.40;8.70;;;17.10;99.90;;;;;;5099227;28;19920;-72
2022/08/20 03:58:08;;;;;;;;;;;17.10;99.90;;;;;;5090557;28;20047;-74
2022/08/20 04:00:46;;;;;;;24.45;8.52;;;17.10;99.90;;;;;;5107616;28;19926;-71
2022/08/20 04:03:12;;;;;;;20.45;8.07;;;17.10;99.90;;;;;;5073294;28;20044;-72
2022/08/20 04:05:39;;;;;;;23.08;8.43;;;17.10;99.90;;;;;;5091346;28;20055;-75
2022/08/20 04:08:17;;;;;;;21.40;8.40;;;17.20;99.90;;;;;;5091491;28;20105;-72
2022/08/20 04:10:45;;;;;;;21.50;8.27;;;17.20;99.90;;;;;;5111603;28;20113;-72
2022/08/20 04:13:11;;;;;;;19.70;7.72;;;17.20;99.90;;;;;;5072715;28;20048;-71
2022/08/20 04:15:37;;;;;;;20.88;7.63;;;17.20;99.90;;;;;;5092410;28;20235;-71
2022/08/20 04:18:08;;;;;;;25.73;8.20;;;17.20;99.90;;;;;;5091863;28;20139;-72
2022/08/20 04:20:37;;;;;;;20.10;8.60;;;17.20;99.90;;;;;;5073880;28;20048;-71
2022/08/20 04:23:03;;;;;;;15.50;6.97;;;17.20;99.90;;;;;;5091151;28;20044;-72
2022/08/20 04:25:30;;;;;;;18.55;6.90;;;17.10;99.90;;;;;;5057045;28;20067;-72
2022/08/20 04:28:00;;;;;;;17.73;7.50;;;17.10;99.90;;;;;;5098483;28;20082;-71
2022/08/20 04:30:27;;;;;;;16.50;7.20;;;17.10;99.90;;;;;;5093856;28;20131;-71
2022/08/20 04:32:53;;;;;;;24.33;7.82;;;17.00;99.90;;;;;;5092770;28;20056;-70
2022/08/20 04:35:19;;;;;;;20.07;7.50;;;17.00;99.90;;;;;;5058245;28;20051;-72
2022/08/20 04:37:46;;;;;;;17.27;6.75;;;17.00;99.90;;;;;;5090320;28;20388;-72
2022/08/20 04:43:00;;;;;;;19.98;6.43;;;16.90;99.90;;;;;;5109492;28;20090;-71
2022/08/20 04:45:26;;;;;;;15.73;5.88;;;16.90;99.90;;;;;;5092682;28;20456;-71
2022/08/20 04:47:53;;;;;;;15.73;6.28;;;16.90;99.90;;;;;;5087375;28;20135;-73
2022/08/20 04:50:19;;;;;;;21.17;7.00;;;16.90;99.90;;;;;;5091194;28;20040;-71
2022/08/20 04:52:47;;;;;;;22.48;6.75;;;16.80;99.90;;;;;;5094549;28;20056;-73
2022/08/20 04:55:16;;;;;;;17.23;6.78;;;16.80;99.90;;;;;;5096624;28;20095;-71
2022/08/20 04:57:42;;;;;;;15.60;6.75;;;16.70;99.90;;;;;;5088510;28;20048;-72
2022/08/20 05:00:15;;;;;;;22.00;7.45;;;16.70;99.90;;;;;;5104928;28;20563;-72
2022/08/20 05:02:41;;;;;;;20.38;7.43;;;16.70;99.90;;;;;;5098066;28;20391;-72
2022/08/20 05:05:08;;;;;;;17.13;7.30;;;16.60;99.90;;;;;;5098081;28;20048;-73
2022/08/20 05:07:44;;;;;;;19.55;7.82;;;16.70;99.90;;;;;;5095612;28;20056;-73
2022/08/20 05:10:12;;;;;;;19.58;7.47;;;16.60;99.90;;;;;;5081448;28;20047;-72
2022/08/20 05:12:41;;;;;;;26.08;8.23;;;16.60;99.90;;;;;;5094924;28;20040;-72
2022/08/20 05:15:10;;;;;;;20.77;7.95;;;16.50;99.90;;;;;;5092149;28;20091;-71
2022/08/20 05:17:41;;;;;;;24.42;8.15;;;16.50;99.90;;;;;;5095828;28;20472;-71
2022/08/20 05:20:09;;;;;;;20.13;7.75;;;16.50;99.90;;;;;;5044529;28;20078;-71
2022/08/20 05:22:35;;;;;;;17.40;7.65;;;16.40;99.90;;;;;;5095699;28;20051;-71
2022/08/20 05:25:01;;;;;;;20.10;7.45;;;16.40;99.90;;;;;;5115479;28;20126;-72
2022/08/20 05:27:29;;;;;;;17.23;7.60;;;16.40;99.90;;;;;;5080454;28;20100;-70
2022/08/20 05:30:08;;;;;;;19.38;6.95;;;16.40;99.90;;;;;;5080147;28;20125;-73
2022/08/20 05:32:35;;;;;;;15.45;7.10;;;16.40;99.90;;;;;;5098623;28;20457;-71
2022/08/20 05:35:06;;;;;;;19.05;6.97;;;16.50;99.90;;;;;;5076172;28;20111;-72
2022/08/20 05:37:35;;;;;;;20.45;7.32;;;16.50;99.90;;;;;;5115190;28;20113;-72
2022/08/20 05:40:05;;;;;;;19.25;6.82;;;16.60;99.90;;;;;;5097548;28;20048;-72
2022/08/20 05:42:31;;;;;;;17.20;7.00;;;16.60;99.90;;;;;;5114017;28;20109;-72
2022/08/20 05:44:57;;;;;;;19.40;7.35;;;16.70;99.90;;;;;;5108810;28;20039;-72
2022/08/20 05:47:27;;;;;;;19.17;6.80;;;16.70;99.90;;;;;;5080507;28;20052;-71
2022/08/20 05:49:53;;;;;;;18.92;6.32;;;16.80;99.90;;;;;;5113124;28;20089;-72
2022/08/20 05:52:19;;;;;;;20.47;6.77;;;16.80;99.90;;;;;;5060207;28;20048;-72
2022/08/20 05:54:44;;;;;;;15.63;6.17;;;16.90;99.90;;;;;;5094290;28;20036;-71
2022/08/20 05:57:12;;;;;;;16.95;5.55;;;17.00;99.90;;;;;;5074821;28;20051;-70
2022/08/20 05:59:38;;;;;;;20.38;6.20;;;17.20;99.90;;;;;;5094530;28;20123;-70
2022/08/20 06:04:23;;;;;;;18.35;5.35;;;17.30;99.90;;;;;;5057619;28;20055;-70
2022/08/20 06:04:50;;;;;;;10.80;4.93;;;17.40;99.90;;;;;;5093643;28;20548;-71
2022/08/20 06:07:16;;;;;;;12.00;4.82;;;17.40;99.90;;;;;;5091762;28;20127;-71
2022/08/20 06:09:41;;;;;;;12.40;5.00;;;17.40;99.90;;;;;;5093431;28;20152;-70
2022/08/20 06:12:08;;;;;;;19.63;4.90;;;17.40;99.90;;;;;;5057466;28;20468;-70
2022/08/20 06:14:34;;;;;;;15.20;5.55;;;17.40;99.90;;;;;;5075981;28;20043;-71
2022/08/20 06:17:12;;;;;;;17.20;5.60;;;17.40;99.90;;;;;;5075267;28;20052;-71
2022/08/20 06:19:38;;;;;;;21.77;5.75;;;17.30;99.90;;;;;;5083969;28;20058;-71
2022/08/20 06:22:05;;;;;;;16.20;5.13;;;17.30;99.90;;;;;;5086933;28;20054;-72
2022/08/20 06:24:31;;;;;;;14.40;4.97;;;17.30;99.90;;;;;;5114019;28;20421;-72
2022/08/20 06:26:59;;;;;;;10.37;4.43;;;17.20;99.90;;;;;;5092903;28;20048;-75
2022/08/20 06:29:26;;;;;;;16.80;4.72;;;17.10;99.90;;;;;;5078196;28;20127;-71
2022/08/20 06:31:52;;;;;;;;;;;17.10;99.90;;;;;;5099206;28;20048;-71
2022/08/20 06:34:18;;;;;;;14.23;4.63;;;17.10;99.90;;;;;;5061381;28;19920;-70
2022/08/20 06:36:47;;;;;;;13.47;4.17;;;17.10;99.90;;;;;;5076683;28;20082;-72
2022/08/20 06:39:14;;;;;;;12.93;4.35;;;17.10;99.90;;;;;;5093558;28;20052;-73
2022/08/20 06:41:41;;;;;;;16.45;5.03;;;17.20;99.90;;;;;;5093396;28;20043;-70
2022/08/20 06:44:07;;;;;;;15.40;5.57;;;17.20;99.90;;;;;;5080405;28;20087;-72
2022/08/20 06:46:34;;;;;;;19.27;5.07;;;17.30;99.90;;;;;;5105971;28;20051;-70
2022/08/20 06:49:02;;;;;;;15.25;4.57;;;17.30;99.90;;;;;;5094851;28;20047;-72
2022/08/20 06:51:28;;;;;;;12.10;4.32;;;17.30;99.90;;;;;;5077654;28;20116;-74
2022/08/20 06:53:54;;;;;;;12.98;4.43;;;17.40;99.90;;;;;;5111439;28;20081;-73
2022/08/20 06:56:20;;;;;;;15.52;3.85;;;17.40;99.90;;;;;;5111291;28;20604;-71
2022/08/20 06:58:46;;;;;;;17.57;4.23;;;17.50;99.90;;;;;;5113719;28;20063;-71
2022/08/20 07:01:12;;;;;;;19.80;3.88;;;17.60;99.90;;;;;;5112634;28;20419;-72
2022/08/20 07:03:42;;;;;;;14.68;3.70;;;17.60;99.90;;;;;;5095097;28;20043;-70
2022/08/20 07:06:08;;;;;;;13.50;3.00;;;17.70;99.90;;;;;;5083796;28;20048;-73
2022/08/20 07:08:34;;;;;;;11.85;2.90;;;17.80;99.90;;;;;;5075484;28;20048;-72
2022/08/20 07:11:00;;;;;;;12.25;2.70;;;17.80;99.90;;;;;;5093068;28;20059;-75
2022/08/20 07:13:27;;;;;;;12.60;2.63;;;17.80;99.90;;;;;;5095123;28;20580;-71
2022/08/20 07:15:54;;;;;;;13.13;2.30;;;17.90;99.90;;;;;;5091701;28;20070;-71
2022/08/20 07:18:21;;;;;;;;;;;18.00;99.90;;;;;;5073339;28;20100;-72
2022/08/20 07:20:47;;;;;;;12.05;2.95;;;18.10;99.90;;;;;;5092384;28;20473;-72
2022/08/20 07:23:13;;;;;;;13.48;2.22;;;18.20;99.90;;;;;;5073686;28;20076;-72
2022/08/20 07:25:43;;;;;;;12.05;2.15;;;18.30;99.90;;;;;;5092586;28;20043;-72
2022/08/20 07:28:15;;;;;;;15.75;2.25;;;18.30;99.90;;;;;;5073798;28;20052;-70
2022/08/20 07:33:29;;;;;;;10.38;1.73;;;18.40;99.90;;;;;;5074008;28;20059;-70
2022/08/20 07:36:02;;;;;;;11.85;1.42;;;18.50;99.90;;;;;;5057430;28;20223;-71
2022/08/20 07:38:29;;;;;;;11.27;1.25;;;18.60;99.90;;;;;;5074167;28;20059;-72
2022/08/20 07:41:03;;;;;;;11.85;1.60;;;18.60;99.90;;;;;;5093572;28;20059;-72
2022/08/20 07:43:29;;;;;;;10.18;1.75;;;18.60;99.90;;;;;;5091544;28;20097;-74
2022/08/20 07:45:59;;;;;;;7.80;1.30;;;18.70;99.90;;;;;;5074272;28;20060;-74
2022/08/20 07:48:28;;;;;;;13.93;1.45;;;18.80;99.90;;;;;;5073496;28;20048;-72
2022/08/20 07:50:58;;;;;;;10.60;1.75;;;18.80;99.90;;;;;;5092926;28;20108;-73
2022/08/20 07:53:25;;;;;;;13.68;1.30;;;18.90;99.90;;;;;;5056502;28;20160;-73
2022/08/20 07:55:51;;;;;;;10.48;1.20;;;19.00;99.90;;;;;;5092054;28;20070;-73
2022/08/20 07:58:19;;;;;;;15.30;1.70;;;19.00;99.90;;;;;;5072619;28;20048;-74
2022/08/20 08:00:48;;;;;;;12.40;1.80;;;19.00;99.90;;;;;;5095115;28;20102;-75
2022/08/20 08:03:14;;;;;;;9.27;1.23;;;19.00;99.90;;;;;;5057607;28;20036;-73
2022/08/20 08:05:42;;;;;;;6.82;1.00;;;19.00;99.90;;;;;;5074693;28;20074;-72
2022/08/20 08:08:12;;;;;;;11.27;1.08;;;19.10;99.90;;;;;;5092054;28;20507;-74
2022/08/20 08:10:40;;;;;;;6.40;1.00;;;19.10;99.90;;;;;;5097513;28;20071;-70
2022/08/20 08:13:08;;;;;;;6.22;0.85;;;19.20;99.90;;;;;;5112034;28;20127;-74
2022/08/20 08:15:38;;;;;;;6.93;0.93;;;19.50;99.90;;;;;;5100268;28;20154;-73
2022/08/20 08:18:12;;;;;;;14.23;0.90;;;19.70;99.90;;;;;;5078017;28;20135;-79
2022/08/20 08:20:42;;;;;;;10.05;1.13;;;19.80;99.90;;;;;;5100253;28;20123;-74
2022/08/20 08:23:12;;;;;;;7.07;1.05;;;19.90;99.90;;;;;;5115255;28;20052;-74
2022/08/20 08:25:42;;;;;;;11.48;1.33;;;20.00;99.90;;;;;;5115276;28;20050;-75
2022/08/20 08:28:12;;;;;;;9.63;1.30;;;20.00;99.90;;;;;;5098545;28;20069;-74
2022/08/20 08:30:40;;;;;;;8.98;0.88;;;19.90;99.90;;;;;;5095187;28;20056;-75
2022/08/20 08:35:51;;;;;;;8.55;0.60;;;19.70;99.90;;;;;;5098023;28;20060;-74
2022/08/20 08:38:20;;;;;;;6.80;0.60;;;19.70;99.90;;;;;;5096728;28;20048;-75
2022/08/20 08:40:50;;;;;;;9.00;1.05;;;19.70;99.90;;;;;;5093807;28;20084;-77
2022/08/20 08:43:18;;;;;;;5.45;0.70;;;19.80;99.90;;;;;;5093564;28;20047;-75
2022/08/20 08:45:49;;;;;;;13.80;0.80;;;19.70;99.90;;;;;;5094246;28;20525;-77
2022/08/20 08:48:18;;;;;;;6.97;0.80;;;19.70;99.90;;;;;;5111545;28;20051;-77
2022/08/20 08:50:48;;;;;;;7.30;1.00;;;19.80;99.90;;;;;;5077268;28;20123;-77
2022/08/20 08:53:25;;;;;;;9.90;0.63;;;19.90;99.90;;;;;;5078950;28;20044;-76
2022/08/20 08:55:52;;;;;;;6.20;0.68;;;19.90;99.90;;;;;;5057104;28;20162;-75
2022/08/20 08:58:17;;;;;;;6.32;0.63;;;19.90;99.90;;;;;;5055868;28;20446;-77
2022/08/20 09:00:44;;;;;;;6.83;0.70;;;19.90;99.90;;;;;;5073541;28;20036;-75
2022/08/20 09:03:22;;;;;;;7.53;0.77;;;19.90;99.90;;;;;;5091204;28;20392;-77
2022/08/20 09:05:51;;;;;;;6.28;0.70;;;19.90;99.90;;;;;;5091644;28;20476;-75
2022/08/20 09:08:24;;;;;;;8.40;0.75;;;20.00;99.90;;;;;;5073772;28;20380;-78
2022/08/20 09:10:50;;;;;;;7.40;0.70;;;20.00;99.90;;;;;;5092178;28;20352;-75
2022/08/20 09:13:16;;;;;;;8.95;0.70;;;20.00;99.90;;;;;;5056449;28;20129;-78
2022/08/20 09:15:42;;;;;;;6.07;0.93;;;20.10;99.90;;;;;;5056821;28;20125;-74
2022/08/20 09:18:08;;;;;;;9.97;0.83;;;20.20;99.90;;;;;;5056650;28;20044;-82
2022/08/20 09:20:34;;;;;;;4.63;0.63;;;20.20;99.90;;;;;;5092538;28;20499;-76
2022/08/20 09:23:00;;;;;;;11.50;0.80;;;20.30;99.90;;;;;;5057069;28;20051;-76
2022/08/20 09:25:25;;;;;;;7.60;0.63;;;20.30;99.90;;;;;;5056647;28;20346;-75
2022/08/20 09:27:51;;;;;;;10.27;0.70;;;20.30;99.90;;;;;;5085889;28;20051;-75
2022/08/20 09:30:17;;;;;;;6.93;0.90;;;20.50;99.90;;;;;;5086534;28;20040;-75
2022/08/20 09:32:43;;;;;;;8.43;1.05;;;20.40;99.90;;;;;;5073484;28;20499;-76
2022/08/20 09:35:12;;;;;;;7.60;0.70;;;20.50;99.90;;;;;;5072905;28;20056;-80
2022/08/20 09:37:38;;;;;;;5.90;0.80;;;20.50;99.90;;;;;;5097455;28;20147;-75
2022/08/20 09:40:07;;;;;;;5.88;0.90;;;20.60;99.90;;;;;;5097426;28;20489;-79
2022/08/20 09:42:35;;;;;;;6.65;0.80;;;20.70;99.90;;;;;;5114537;28;20140;-78
2022/08/20 09:45:01;;;;;;;8.68;0.80;;;20.70;99.90;;;;;;5073767;28;20067;-78
2022/08/20 09:47:27;;;;;;;6.90;0.70;;;20.80;99.90;;;;;;5059657;28;20079;-80
2022/08/20 09:49:53;;;;;;;6.33;1.00;;;20.80;99.90;;;;;;5077373;28;20087;-77
2022/08/20 09:52:26;;;;;;;11.23;0.95;;;20.90;99.90;;;;;;5077230;28;20056;-81
2022/08/20 09:54:56;;;;;;;7.75;0.85;;;21.00;99.90;;;;;;5094829;28;20418;-77
2022/08/20 09:57:22;;;;;;;10.13;0.88;;;21.10;99.90;;;;;;5093201;28;20048;-77
2022/08/20 09:59:56;;;;;;;7.80;0.93;;;21.10;99.90;;;;;;5066357;28;20054;-76
2022/08/20 10:02:22;;;;;;;9.13;0.90;;;21.10;99.90;;;;;;5086302;28;20040;-80
2022/08/20 10:04:48;;;;;;;6.88;0.80;;;21.20;99.90;;;;;;5094632;28;20481;-77
2022/08/20 10:07:14;;;;;;;10.67;1.33;;;21.20;99.90;;;;;;5095767;28;20051;-82
2022/08/20 10:09:39;;;;;;;8.70;0.90;;;21.20;99.90;;;;;;5078161;28;20548;-75
2022/08/20 10:12:05;;;;;;;7.23;1.10;;;21.20;99.90;;;;;;5094898;28;20441;-78
2022/08/20 10:14:31;;;;;;;9.30;1.00;;;21.30;99.90;;;;;;5100216;28;20048;-81
2022/08/20 10:16:59;;;;;;;10.10;1.10;;;21.40;99.90;;;;;;5094939;28;20123;-76
2022/08/20 10:19:25;;;;;;;12.38;1.10;;;21.40;99.90;;;;;;5096053;28;20044;-80
2022/08/20 10:21:52;;;;;;;8.20;1.08;;;21.50;99.90;;;;;;5095333;28;20108;-83
2022/08/20 10:24:18;;;;;;;9.68;1.10;;;21.60;99.90;;;;;;5095848;28;20129;-82
2022/08/20 10:26:45;;;;;;;7.65;1.02;;;21.70;99.90;;;;;;5094847;28;20059;-78
2022/08/20 10:29:11;;;;;;;11.07;1.33;;;21.80;99.90;;;;;;5111252;28;20039;-77
2022/08/20 10:31:36;;;;;;;15.55;1.75;;;21.90;99.90;;;;;;5109948;28;20143;-76
2022/08/20 10:34:02;;;;;;;8.13;1.07;;;21.90;99.90;;;;;;5096860;28;20102;-75
2022/08/20 10:36:29;;;;;;;6.27;0.97;;;21.70;99.90;;;;;;5096482;28;20500;-79
2022/08/20 10:38:55;;;;;;;9.77;0.93;;;21.80;99.90;;;;;;5095489;28;20278;-79
2022/08/20 10:41:21;;;;;;;8.67;1.00;;;21.90;99.90;;;;;;5111093;28;20582;-76
2022/08/20 10:43:48;;;;;;;8.23;0.70;;;21.90;99.90;;;;;;5101255;28;20052;-76
2022/08/20 10:46:14;;;;;;;10.25;0.95;;;21.90;99.90;;;;;;5099244;28;20044;-75
2022/08/20 10:48:40;;;;;;;9.70;1.02;;;22.00;99.90;;;;;;5079506;28;20060;-80
2022/08/20 10:51:06;;;;;;;9.97;1.00;;;22.10;99.90;;;;;;5096002;28;20170;-81
2022/08/20 10:53:31;;;;;;;9.20;0.98;;;22.30;99.90;;;;;;5105518;28;20036;-81
2022/08/20 10:55:57;;;;;;;11.70;1.10;;;22.50;99.90;;;;;;5119070;28;20039;-80
2022/08/20 10:58:24;;;;;;;9.73;0.98;;;22.70;99.90;;;;;;5120239;28;20043;-77
2022/08/20 11:00:50;;;;;;;;;;;22.70;99.40;;;;;;5084293;28;20483;-76
2022/08/20 11:03:16;;;;;;;7.82;0.80;;;22.80;99.00;;;;;;5090215;28;19927;-78
2022/08/20 11:05:42;;;;;;;11.57;1.10;;;22.80;97.70;;;;;;5098306;28;20059;-80
2022/08/20 11:08:07;;;;;;;13.97;1.40;;;22.90;99.40;;;;;;5063325;28;20084;-83
2022/08/20 11:10:35;;;;;;;9.20;0.90;;;22.90;98.90;;;;;;5097115;28;20040;-78
2022/08/20 11:13:08;;;;;;;8.25;1.10;;;23.00;98.40;;;;;;5080791;28;20408;-78
2022/08/20 11:15:40;;;;;;;11.15;1.17;;;22.80;98.90;;;;;;5081846;28;20040;-78
2022/08/20 11:18:13;;;;;;;12.05;1.17;;;22.80;98.80;;;;;;5080126;28;20048;-81
2022/08/20 11:20:39;;;;;;;11.77;1.25;;;23.00;99.60;;;;;;5079102;28;20040;-80
2022/08/20 11:23:05;;;;;;;11.88;1.40;;;23.10;98.20;;;;;;5092873;28;20048;-80
2022/08/20 11:25:31;;;;;;;10.88;1.30;;;23.00;96.70;;;;;;5084864;28;20135;-81
2022/08/20 11:27:57;;;;;;;;;;;23.30;97.70;;;;;;5102016;28;20371;-79
2022/08/20 11:30:30;;;;;;;5.05;0.75;;;23.60;98.10;;;;;;5106041;28;19919;-78
2022/08/20 11:32:57;;;;;;;8.07;1.10;;;23.70;96.20;;;;;;5101460;28;20092;-76
2022/08/20 11:35:24;;;;;;;8.15;1.27;;;23.60;93.90;;;;;;5090359;28;20492;-80
2022/08/20 11:37:51;;;;;;;12.68;1.20;;;23.60;96.20;;;;;;5072951;28;20059;-75
2022/08/20 11:40:17;;;;;;;7.93;0.80;;;23.40;94.00;;;;;;5087744;28;20044;-81
2022/08/20 11:42:43;;;;;;;8.50;1.02;;;23.30;95.60;;;;;;5076331;28;20543;-78
2022/08/20 11:45:09;;;;;;;11.90;1.52;;;23.30;96.00;;;;;;5107286;28;20047;-71
2022/08/20 11:47:36;;;;;;;10.52;1.35;;;23.50;94.90;;;;;;5112393;28;20068;-77
2022/08/20 11:50:10;;;;;;;9.98;1.17;;;23.80;95.50;;;;;;5105595;28;20075;-81
2022/08/20 11:52:36;;;;;;;10.43;1.17;;;23.90;94.10;;;;;;5088447;28;20650;-77
2022/08/20 11:55:03;;;;;;;8.02;1.33;;;24.10;94.20;;;;;;5088925;28;20345;-79
2022/08/20 11:57:31;;;;;;;14.57;1.83;;;24.20;93.30;;;;;;5069031;28;20051;-75
2022/08/20 11:59:59;;;;;;;9.90;1.70;;;24.30;93.60;;;;;;5103490;28;20054;-81
2022/08/20 12:02:25;;;;;;;11.70;1.15;;;24.30;93.00;;;;;;5103551;28;20040;-78
2022/08/20 12:04:51;;;;;;;10.63;1.75;;;24.10;92.80;;;;;;5106967;28;20036;-79
2022/08/20 12:07:19;;;;;;;7.83;1.10;;;24.20;93.60;;;;;;5068278;28;20054;-73
2022/08/20 12:09:46;;;;;;;13.10;1.30;;;24.40;93.00;;;;;;5085200;28;20060;-76
2022/08/20 12:12:13;;;;;;;8.25;1.40;;;24.20;90.70;;;;;;5101956;28;20048;-76
2022/08/20 12:14:39;;;;;;;11.93;1.55;;;24.20;91.40;;;;;;5064086;28;20040;-75
2022/08/20 12:17:09;;;;;;;9.80;1.15;;;23.90;90.30;;;;;;5080808;28;20044;-75
2022/08/20 12:19:37;;;;;;;17.48;1.70;;;24.10;91.70;;;;;;5082266;28;20070;-76
2022/08/20 12:22:03;;;;;;;8.18;1.92;;;24.10;91.20;;;;;;5080840;28;20512;-79
2022/08/20 12:24:30;;;;;;;9.83;1.60;;;24.40;92.00;;;;;;5067591;28;20031;-78
2022/08/20 12:27:07;;;;;;;13.60;2.00;;;24.60;90.70;;;;;;5070221;28;20043;-78
2022/08/20 12:29:34;;;;;;;13.02;1.88;;;24.90;91.00;;;;;;5106237;28;20495;-80
2022/08/20 12:32:00;;;;;;;9.73;1.70;;;24.90;90.10;;;;;;5084410;28;20403;-79
2022/08/20 12:34:29;;;;;;;15.15;1.70;;;25.10;91.20;;;;;;5103487;28;20040;-79
2022/08/20 12:36:59;;;;;;;;;;;24.80;90.00;;;;;;5085963;28;20056;-77
2022/08/20 12:39:25;;;;;;;9.43;2.28;;;25.00;88.10;;;;;;5104515;28;19975;-75
2022/08/20 12:41:51;;;;;;;10.17;1.90;;;25.00;90.70;;;;;;5070694;28;20028;-83
2022/08/20 12:44:16;;;;;;;13.70;2.30;;;24.80;89.10;;;;;;5088928;28;20048;-77
2022/08/20 12:46:42;;;;;;;12.73;1.97;;;24.50;86.60;;;;;;5073446;28;20081;-79
2022/08/20 12:49:08;;;;;;;9.57;2.00;;;24.50;90.10;;;;;;5106568;28;20044;-76
2022/08/20 12:51:34;;;;;;;13.67;2.13;;;24.40;90.90;;;;;;5086557;28;20043;-78
2022/08/20 12:53:59;;;;;;;16.83;2.53;;;24.20;91.00;;;;;;5066405;28;20040;-78